createdAt,value
2022-07-26T00:00:45.008Z,1.15
2022-07-26T00:06:38.868Z,1.23
2022-07-26T00:09:08.076Z,2.05
2022-07-26T00:11:37.044Z,1.20
2022-07-26T00:14:08.336Z,1.50
2022-07-26T00:16:38.550Z,1.50
2022-07-26T00:19:08.811Z,1.60
2022-07-26T00:21:40.896Z,1.48
2022-07-26T00:24:10.432Z,1.77
2022-07-26T00:26:39.588Z,1.50
2022-07-26T00:29:08.567Z,1.67
2022-07-26T00:31:37.581Z,2.05
2022-07-26T00:34:06.580Z,1.70
2022-07-26T00:36:35.539Z,2.05
2022-07-26T00:39:11.690Z,1.85
2022-07-26T00:41:40.595Z,1.63
2022-07-26T00:44:09.618Z,2.25
2022-07-26T00:46:38.557Z,1.50
2022-07-26T00:49:07.417Z,1.33
2022-07-26T00:51:36.371Z,2.40
2022-07-26T00:54:06.635Z,1.80
2022-07-26T00:56:36.865Z,1.83
2022-07-26T00:59:05.837Z,1.77
2022-07-26T01:01:35.311Z,1.85
2022-07-26T01:04:03.920Z,1.60
2022-07-26T01:06:32.533Z,1.60
2022-07-26T01:09:01.502Z,2.10
2022-07-26T01:11:30.116Z,2.05
2022-07-26T01:14:00.362Z,2.15
2022-07-26T01:16:29.264Z,2.08
2022-07-26T01:18:58.214Z,1.75
2022-07-26T01:21:31.401Z,1.40
2022-07-26T01:24:00.492Z,1.83
2022-07-26T01:26:29.123Z,1.88
2022-07-26T01:28:57.881Z,1.98
2022-07-26T01:31:27.296Z,1.85
2022-07-26T01:33:55.983Z,1.92
2022-07-26T01:36:24.757Z,1.73
2022-07-26T01:38:54.981Z,2.00
2022-07-26T01:41:38.210Z,1.92
2022-07-26T01:44:08.570Z,1.85
2022-07-26T01:46:38.052Z,1.90
2022-07-26T01:49:07.431Z,1.55
2022-07-26T01:51:36.643Z,1.88
2022-07-26T01:54:07.280Z,2.10
2022-07-26T01:56:36.496Z,1.58
2022-07-26T01:59:05.773Z,1.50
2022-07-26T02:01:39.195Z,1.55
2022-07-26T02:04:29.374Z,1.55
2022-07-26T02:06:58.167Z,1.42
2022-07-26T02:09:29.409Z,1.60
2022-07-26T02:12:03.440Z,1.70
2022-07-26T02:14:32.381Z,1.50
2022-07-26T02:17:01.124Z,1.80
2022-07-26T02:19:30.220Z,1.52
2022-07-26T02:21:59.658Z,1.90
2022-07-26T02:24:29.967Z,1.60
2022-07-26T02:26:59.061Z,1.55
2022-07-26T02:29:28.540Z,1.77
2022-07-26T02:31:58.126Z,1.75
2022-07-26T02:34:28.249Z,1.83
2022-07-26T02:36:59.982Z,1.50
2022-07-26T02:39:29.939Z,1.70
2022-07-26T02:41:59.971Z,1.90
2022-07-26T02:44:30.584Z,1.23
2022-07-26T02:46:59.132Z,2.05
2022-07-26T02:49:27.762Z,1.50
2022-07-26T02:51:56.373Z,1.70
2022-07-26T02:54:24.923Z,1.58
2022-07-26T02:56:54.808Z,1.52
2022-07-26T02:59:23.511Z,1.80
2022-07-26T03:01:52.163Z,1.67
2022-07-26T03:04:20.729Z,1.70
2022-07-26T03:06:49.579Z,1.45
2022-07-26T03:09:18.168Z,1.95
2022-07-26T03:11:47.000Z,1.67
2022-07-26T03:14:17.072Z,1.42
2022-07-26T03:16:45.673Z,1.90
2022-07-26T03:19:14.152Z,2.08
2022-07-26T03:21:42.908Z,1.83
2022-07-26T03:24:11.707Z,1.60
2022-07-26T03:26:40.372Z,1.85
2022-07-26T03:29:09.468Z,2.00
2022-07-26T03:31:39.536Z,1.70
2022-07-26T03:34:08.662Z,2.25
2022-07-26T03:36:37.879Z,2.38
2022-07-26T03:39:06.417Z,1.92
2022-07-26T03:41:34.912Z,1.73
2022-07-26T03:44:03.797Z,1.92
2022-07-26T03:46:32.631Z,2.05
2022-07-26T03:49:02.997Z,2.22
2022-07-26T03:51:34.056Z,1.80
2022-07-26T03:54:02.780Z,1.75
2022-07-26T03:56:32.042Z,1.73
2022-07-26T03:59:02.770Z,2.10
2022-07-26T04:01:31.739Z,2.20
2022-07-26T04:04:00.581Z,1.98
2022-07-26T04:06:31.253Z,2.40
2022-07-26T04:08:59.878Z,1.85
2022-07-26T04:11:43.899Z,2.30
2022-07-26T04:14:12.903Z,2.35
2022-07-26T04:16:43.776Z,2.13
2022-07-26T04:19:12.722Z,2.60
2022-07-26T04:21:42.977Z,2.03
2022-07-26T04:24:11.962Z,2.10
2022-07-26T04:26:40.788Z,2.00
2022-07-26T04:29:09.608Z,2.80
2022-07-26T04:31:40.509Z,2.13
2022-07-26T04:34:09.547Z,2.28
2022-07-26T04:36:39.078Z,2.67
2022-07-26T04:39:09.005Z,3.10
2022-07-26T04:41:37.597Z,3.45
2022-07-26T04:44:07.118Z,3.20
2022-07-26T04:46:35.880Z,3.33
2022-07-26T04:49:04.667Z,2.78
2022-07-26T04:51:33.450Z,3.40
2022-07-26T04:54:01.998Z,3.55
2022-07-26T04:56:32.105Z,3.90
2022-07-26T04:59:00.940Z,3.75
2022-07-26T05:01:29.668Z,3.00
2022-07-26T05:03:58.334Z,3.13
2022-07-26T05:06:27.069Z,3.10
2022-07-26T05:08:55.547Z,3.25
2022-07-26T05:11:24.280Z,3.13
2022-07-26T05:13:54.311Z,4.20
2022-07-26T05:16:22.783Z,3.10
2022-07-26T05:18:51.360Z,3.85
2022-07-26T05:21:20.399Z,4.10
2022-07-26T05:23:48.988Z,3.88
2022-07-26T05:26:17.571Z,3.97
2022-07-26T05:28:47.384Z,3.33
2022-07-26T05:31:17.421Z,3.58
2022-07-26T05:33:45.999Z,3.92
2022-07-26T05:36:14.776Z,3.45
2022-07-26T05:38:43.249Z,3.90
2022-07-26T05:41:12.184Z,3.13
2022-07-26T05:43:42.134Z,3.72
2022-07-26T05:46:12.207Z,4.00
2022-07-26T05:48:42.373Z,4.35
2022-07-26T05:51:11.538Z,4.25
2022-07-26T05:53:40.114Z,3.67
2022-07-26T05:56:09.061Z,3.67
2022-07-26T05:58:38.370Z,3.50
2022-07-26T06:01:07.227Z,3.63
2022-07-26T06:03:35.792Z,4.93
2022-07-26T06:06:06.542Z,3.97
2022-07-26T06:08:35.435Z,4.35
2022-07-26T06:11:04.432Z,4.57
2022-07-26T06:13:33.334Z,4.38
2022-07-26T06:16:02.494Z,3.92
2022-07-26T06:18:31.000Z,3.63
2022-07-26T06:21:02.159Z,3.28
2022-07-26T06:23:35.030Z,3.90
2022-07-26T06:26:05.200Z,3.10
2022-07-26T06:28:34.536Z,2.88
2022-07-26T06:31:03.091Z,3.13
2022-07-26T06:33:32.112Z,3.17
2022-07-26T06:36:00.905Z,3.45
2022-07-26T06:38:29.712Z,3.60
2022-07-26T06:41:00.011Z,2.42
2022-07-26T06:43:28.526Z,3.22
2022-07-26T06:45:57.148Z,2.88
2022-07-26T06:48:26.138Z,2.35
2022-07-26T06:50:54.876Z,2.60
2022-07-26T06:53:23.484Z,2.72
2022-07-26T06:55:52.321Z,2.90
2022-07-26T06:58:22.355Z,2.28
2022-07-26T07:00:51.008Z,2.60
2022-07-26T07:03:19.969Z,2.10
2022-07-26T07:05:50.249Z,1.90
2022-07-26T07:08:21.471Z,1.90
2022-07-26T07:10:52.972Z,2.50
2022-07-26T07:13:24.683Z,2.03
2022-07-26T07:15:53.748Z,1.85
2022-07-26T07:18:22.968Z,1.85
2022-07-26T07:20:51.633Z,1.88
2022-07-26T07:23:22.417Z,1.92
2022-07-26T07:25:51.326Z,1.40
2022-07-26T07:28:20.011Z,1.77
2022-07-26T07:30:50.139Z,1.30
2022-07-26T07:33:22.355Z,1.75
2022-07-26T07:35:53.912Z,2.47
2022-07-26T07:38:22.881Z,2.17
2022-07-26T07:40:52.321Z,2.00
2022-07-26T07:43:21.260Z,1.48
2022-07-26T07:45:51.183Z,1.52
2022-07-26T07:48:19.754Z,1.60
2022-07-26T07:50:48.432Z,1.42
2022-07-26T07:53:17.255Z,1.52
2022-07-26T07:55:48.777Z,1.73
2022-07-26T07:58:19.015Z,1.48
2022-07-26T08:00:48.819Z,1.20
2022-07-26T08:03:19.902Z,1.00
2022-07-26T08:05:49.823Z,1.58
2022-07-26T08:08:22.373Z,1.25
2022-07-26T08:10:53.437Z,1.83
2022-07-26T08:13:23.146Z,1.48
2022-07-26T08:15:52.703Z,1.40
2022-07-26T08:18:23.459Z,1.65
2022-07-26T08:20:54.642Z,1.27
2022-07-26T08:23:23.696Z,1.45
2022-07-26T08:25:58.697Z,1.80
2022-07-26T08:28:46.775Z,1.70
2022-07-26T08:31:15.974Z,1.20
2022-07-26T08:33:47.070Z,1.38
2022-07-26T08:36:16.437Z,1.60
2022-07-26T08:38:46.299Z,1.75
2022-07-26T08:41:18.145Z,1.67
2022-07-26T08:43:52.890Z,0.90
2022-07-26T08:46:27.062Z,1.63
2022-07-26T08:48:57.986Z,1.50
2022-07-26T08:51:27.646Z,1.15
2022-07-26T08:54:04.179Z,1.35
2022-07-26T08:56:36.187Z,1.60
2022-07-26T08:59:19.442Z,1.65
2022-07-26T09:01:53.427Z,1.75
2022-07-26T09:04:33.998Z,1.40
2022-07-26T09:07:07.104Z,1.67
2022-07-26T09:09:37.815Z,1.30
2022-07-26T09:12:18.385Z,1.88
2022-07-26T09:14:47.999Z,1.50
2022-07-26T09:17:18.555Z,1.48
2022-07-26T09:20:07.894Z,1.40
2022-07-26T09:22:36.932Z,1.55
2022-07-26T09:25:20.042Z,1.20
2022-07-26T09:27:49.054Z,1.65
2022-07-26T09:30:17.624Z,1.13
2022-07-26T09:33:02.678Z,2.08
2022-07-26T09:35:52.221Z,1.63
2022-07-26T09:38:21.145Z,1.50
2022-07-26T09:40:51.411Z,1.40
2022-07-26T09:43:24.324Z,1.63
2022-07-26T09:46:07.416Z,1.45
2022-07-26T09:49:08.331Z,1.55
2022-07-26T09:51:39.889Z,1.85
2022-07-26T09:54:09.731Z,1.65
2022-07-26T09:56:46.756Z,2.03
2022-07-26T09:59:16.935Z,1.63
2022-07-26T10:01:46.910Z,1.63
2022-07-26T10:04:16.283Z,1.50
2022-07-26T10:06:46.461Z,1.55
2022-07-26T10:09:16.523Z,2.05
2022-07-26T10:11:51.022Z,1.85
2022-07-26T10:14:45.862Z,1.45
2022-07-26T10:17:49.311Z,1.88
2022-07-26T10:20:46.781Z,1.25
2022-07-26T10:23:50.341Z,1.27
2022-07-26T10:26:43.074Z,1.33
2022-07-26T10:29:26.827Z,0.98
2022-07-26T10:32:20.424Z,1.65
2022-07-26T10:34:49.229Z,1.10
2022-07-26T10:37:27.766Z,1.13
2022-07-26T10:40:19.543Z,1.10
2022-07-26T10:42:48.755Z,1.27
2022-07-26T10:45:23.937Z,1.15
2022-07-26T10:48:17.207Z,0.77
2022-07-26T10:50:50.557Z,1.60
2022-07-26T10:53:21.451Z,1.40
2022-07-26T10:55:53.009Z,1.45
2022-07-26T10:58:22.167Z,1.27
2022-07-26T11:00:59.523Z,1.27
2022-07-26T11:03:38.851Z,1.48
2022-07-26T11:06:13.110Z,1.00
2022-07-26T11:08:47.442Z,1.10
2022-07-26T11:11:30.183Z,1.30
2022-07-26T11:14:09.866Z,1.08
2022-07-26T11:16:43.214Z,1.25
2022-07-26T11:19:17.003Z,1.30
2022-07-26T11:21:46.454Z,1.35
2022-07-26T11:24:15.665Z,1.48
2022-07-26T11:26:46.707Z,1.35
2022-07-26T11:29:17.563Z,1.30
2022-07-26T11:31:59.673Z,1.20
2022-07-26T11:34:34.011Z,1.25
2022-07-26T11:37:04.767Z,1.35
2022-07-26T11:39:35.159Z,1.10
2022-07-26T11:42:07.842Z,1.30
2022-07-26T11:44:37.935Z,1.27
2022-07-26T11:47:14.211Z,1.40
2022-07-26T11:50:01.129Z,1.73
2022-07-26T11:52:32.657Z,1.75
2022-07-26T11:55:01.889Z,1.25
2022-07-26T11:57:33.120Z,1.25
2022-07-26T12:00:02.550Z,1.38
2022-07-26T12:02:31.962Z,1.27
2022-07-26T12:05:18.522Z,1.15
2022-07-26T12:07:59.376Z,1.05
2022-07-26T12:10:28.997Z,1.55
2022-07-26T12:13:13.480Z,1.30
2022-07-26T12:15:52.685Z,1.48
2022-07-26T12:18:26.967Z,1.60
2022-07-26T12:21:06.546Z,1.65
2022-07-26T12:23:43.523Z,1.20
2022-07-26T12:26:23.173Z,1.30
2022-07-26T12:28:53.568Z,1.20
2022-07-26T12:31:27.271Z,2.17
2022-07-26T12:33:56.439Z,2.03
2022-07-26T12:36:27.771Z,1.35
2022-07-26T12:38:58.942Z,0.93
2022-07-26T12:41:35.327Z,1.20
2022-07-26T12:44:06.409Z,1.45
2022-07-26T12:46:36.148Z,1.33
2022-07-26T12:49:06.069Z,1.33
2022-07-26T12:51:35.309Z,1.20
2022-07-26T12:54:06.392Z,1.30
2022-07-26T12:56:36.013Z,1.17
2022-07-26T12:59:06.130Z,1.73
2022-07-26T13:01:34.865Z,1.30
2022-07-26T13:04:03.848Z,1.08
2022-07-26T13:06:33.018Z,1.55
2022-07-26T13:09:02.069Z,1.80
2022-07-26T13:11:31.077Z,1.00
2022-07-26T13:13:59.799Z,1.20
2022-07-26T13:16:29.996Z,1.83
2022-07-26T13:18:58.905Z,1.20
2022-07-26T13:21:33.435Z,1.48
2022-07-26T13:24:02.858Z,1.58
2022-07-26T13:26:31.651Z,1.00
2022-07-26T13:29:00.299Z,1.10
2022-07-26T13:31:30.642Z,1.40
2022-07-26T13:33:59.242Z,1.40
2022-07-26T13:36:28.134Z,1.38
2022-07-26T13:38:56.939Z,1.52
2022-07-26T13:41:25.605Z,1.17
2022-07-26T13:43:55.843Z,1.25
2022-07-26T13:46:31.158Z,1.92
2022-07-26T13:49:05.473Z,2.00
2022-07-26T13:51:54.162Z,1.20
2022-07-26T13:54:24.182Z,1.20
2022-07-26T13:56:53.411Z,1.30
2022-07-26T13:59:22.087Z,1.60
2022-07-26T14:01:50.929Z,1.00
2022-07-26T14:04:21.670Z,1.23
2022-07-26T14:06:50.473Z,0.88
2022-07-26T14:09:20.324Z,1.25
2022-07-26T14:11:49.207Z,1.38
2022-07-26T14:14:18.333Z,1.40
2022-07-26T14:16:49.306Z,1.23
2022-07-26T14:19:18.603Z,1.02
2022-07-26T14:21:59.918Z,1.13
2022-07-26T14:24:30.063Z,1.02
2022-07-26T14:26:59.872Z,1.25
2022-07-26T14:29:30.887Z,0.95
2022-07-26T14:31:59.788Z,1.05
2022-07-26T14:34:28.637Z,0.98
2022-07-26T14:36:58.986Z,0.88
2022-07-26T14:39:27.672Z,0.82
2022-07-26T14:41:56.398Z,1.10
2022-07-26T14:44:26.757Z,0.82
2022-07-26T14:46:55.971Z,1.10
2022-07-26T14:49:27.831Z,1.35
2022-07-26T14:51:58.586Z,0.73
2022-07-26T14:54:27.244Z,1.05
2022-07-26T14:56:55.918Z,1.08
2022-07-26T14:59:24.705Z,1.10
2022-07-26T15:01:53.933Z,1.10
2022-07-26T15:04:22.457Z,0.90
2022-07-26T15:06:51.279Z,0.95
2022-07-26T15:09:21.318Z,1.00
2022-07-26T15:11:50.127Z,1.27
2022-07-26T15:14:18.927Z,1.35
2022-07-26T15:16:47.721Z,1.00
2022-07-26T15:19:16.502Z,1.08
2022-07-26T15:21:45.350Z,1.10
2022-07-26T15:24:14.298Z,0.98
2022-07-26T15:26:45.390Z,0.88
2022-07-26T15:29:15.754Z,0.80
2022-07-26T15:31:44.814Z,0.80
2022-07-26T15:34:13.834Z,0.70
2022-07-26T15:36:42.830Z,1.20
2022-07-26T15:39:17.334Z,1.02
2022-07-26T15:41:49.171Z,1.10
2022-07-26T15:44:21.703Z,0.88
2022-07-26T15:46:52.983Z,1.25
2022-07-26T15:49:21.816Z,0.90
2022-07-26T15:51:51.567Z,1.25
2022-07-26T15:54:21.331Z,0.88
2022-07-26T15:56:51.424Z,1.30
2022-07-26T15:59:20.046Z,1.08
2022-07-26T16:01:48.814Z,1.35
2022-07-26T16:04:17.512Z,0.90
2022-07-26T16:06:47.230Z,0.75
2022-07-26T16:09:18.197Z,0.95
2022-07-26T16:11:48.209Z,1.20
2022-07-26T16:14:18.967Z,0.98
2022-07-26T16:16:47.722Z,1.10
2022-07-26T16:19:16.622Z,1.02
2022-07-26T16:21:45.994Z,1.30
2022-07-26T16:24:14.613Z,1.00
2022-07-26T16:26:43.832Z,1.00
2022-07-26T16:29:13.045Z,0.90
2022-07-26T16:31:43.469Z,0.90
2022-07-26T16:34:12.731Z,1.10
2022-07-26T16:36:41.776Z,0.93
2022-07-26T16:39:10.500Z,0.70
2022-07-26T16:41:39.649Z,1.15
2022-07-26T16:44:08.655Z,1.02
2022-07-26T16:46:37.357Z,1.30
2022-07-26T16:49:07.489Z,0.90
2022-07-26T16:51:36.503Z,0.90
2022-07-26T16:54:05.456Z,0.95
2022-07-26T16:56:34.166Z,1.33
2022-07-26T16:59:05.401Z,0.70
2022-07-26T17:01:36.167Z,0.70
2022-07-26T17:04:06.507Z,0.70
2022-07-26T17:06:35.186Z,0.80
2022-07-26T17:09:03.961Z,1.02
2022-07-26T17:11:32.819Z,1.15
2022-07-26T17:14:01.818Z,1.00
2022-07-26T17:16:30.834Z,1.10
2022-07-26T17:18:59.814Z,0.88
2022-07-26T17:21:29.898Z,0.80
2022-07-26T17:24:02.595Z,0.80
2022-07-26T17:26:34.112Z,0.82
2022-07-26T17:29:07.089Z,1.20
2022-07-26T17:31:36.055Z,1.00
2022-07-26T17:34:04.678Z,1.00
2022-07-26T17:36:35.923Z,0.88
2022-07-26T17:39:06.197Z,0.95
2022-07-26T17:41:36.766Z,0.65
2022-07-26T17:44:09.746Z,1.10
2022-07-26T17:46:38.479Z,1.00
2022-07-26T17:49:07.354Z,0.88
2022-07-26T17:51:38.328Z,0.70
2022-07-26T17:54:07.161Z,1.02
2022-07-26T17:56:36.601Z,0.73
2022-07-26T17:59:05.827Z,0.98
2022-07-26T18:01:34.527Z,0.95
2022-07-26T18:04:03.184Z,0.82
2022-07-26T18:06:31.970Z,0.60
2022-07-26T18:09:02.434Z,0.70
2022-07-26T18:11:31.596Z,0.82
2022-07-26T18:14:00.421Z,0.57
2022-07-26T18:16:29.674Z,0.80
2022-07-26T18:18:58.379Z,0.68
2022-07-26T18:21:27.165Z,0.88
2022-07-26T18:24:16.010Z,0.75
2022-07-26T18:26:46.563Z,0.77
2022-07-26T18:29:16.750Z,0.55
2022-07-26T18:31:45.633Z,0.90
2022-07-26T18:34:14.587Z,0.90
2022-07-26T18:36:43.235Z,0.75
2022-07-26T18:39:12.436Z,0.73
2022-07-26T18:41:41.767Z,0.75
2022-07-26T18:44:12.456Z,0.80
2022-07-26T18:46:41.246Z,0.82
2022-07-26T18:49:20.138Z,0.88
2022-07-26T18:51:49.758Z,0.90
2022-07-26T18:54:19.145Z,1.00
2022-07-26T18:56:47.744Z,1.23
2022-07-26T18:59:17.729Z,1.02
2022-07-26T19:01:46.620Z,0.63
2022-07-26T19:04:17.102Z,0.82
2022-07-26T19:06:47.536Z,0.70
2022-07-26T19:09:18.676Z,1.10
2022-07-26T19:11:47.268Z,0.82
2022-07-26T19:14:17.552Z,0.90
2022-07-26T19:16:46.394Z,1.23
2022-07-26T19:19:15.554Z,0.98
2022-07-26T19:21:47.345Z,0.90
2022-07-26T19:24:16.077Z,0.98
2022-07-26T19:26:44.763Z,1.30
2022-07-26T19:29:16.618Z,0.80
2022-07-26T19:31:47.035Z,1.10
2022-07-26T19:34:16.874Z,0.95
2022-07-26T19:36:45.498Z,1.00
2022-07-26T19:39:14.496Z,0.50
2022-07-26T19:41:43.921Z,1.05
2022-07-26T19:44:12.591Z,0.93
2022-07-26T19:46:41.268Z,1.38
2022-07-26T19:49:12.718Z,0.80
2022-07-26T19:51:42.420Z,1.17
2022-07-26T19:54:11.818Z,0.98
2022-07-26T19:56:42.117Z,1.02
2022-07-26T19:59:10.995Z,0.98
2022-07-26T20:01:40.272Z,1.02
2022-07-26T20:04:10.374Z,0.75
2022-07-26T20:06:38.970Z,0.70
2022-07-26T20:09:08.530Z,1.08
2022-07-26T20:11:38.903Z,0.73
2022-07-26T20:14:07.448Z,1.00
2022-07-26T20:16:36.349Z,0.70
2022-07-26T20:19:05.060Z,0.75
2022-07-26T20:21:35.109Z,0.85
2022-07-26T20:24:03.938Z,1.00
2022-07-26T20:26:32.692Z,0.70
2022-07-26T20:29:01.575Z,0.80
2022-07-26T20:31:30.714Z,0.65
2022-07-26T20:33:59.535Z,0.70
2022-07-26T20:36:28.280Z,0.73
2022-07-26T20:38:59.913Z,0.65
2022-07-26T20:41:28.625Z,0.60
2022-07-26T20:44:02.889Z,0.77
2022-07-26T20:46:33.110Z,0.50
2022-07-26T20:49:02.056Z,0.68
2022-07-26T20:51:30.994Z,0.68
2022-07-26T20:54:01.037Z,0.75
2022-07-26T20:56:29.680Z,0.70
2022-07-26T20:58:58.622Z,0.98
2022-07-26T21:01:27.425Z,0.60
2022-07-26T21:03:55.995Z,1.23
2022-07-26T21:06:25.675Z,0.98
2022-07-26T21:08:58.022Z,0.60
2022-07-26T21:11:28.159Z,0.68
2022-07-26T21:13:56.693Z,0.55
2022-07-26T21:16:25.475Z,0.73
2022-07-26T21:18:54.340Z,0.52
2022-07-26T21:21:23.383Z,0.60
2022-07-26T21:23:52.133Z,0.55
2022-07-26T21:26:21.078Z,0.40
2022-07-26T21:28:51.139Z,0.60
2022-07-26T21:31:20.502Z,0.52
2022-07-26T21:33:49.497Z,0.70
2022-07-26T21:36:18.007Z,0.60
2022-07-26T21:38:46.761Z,0.57
2022-07-26T21:41:15.848Z,0.60
2022-07-26T21:43:44.473Z,0.50
2022-07-26T21:46:16.309Z,0.55
2022-07-26T21:48:45.237Z,0.85
2022-07-26T21:51:13.877Z,0.60
2022-07-26T21:53:42.694Z,0.70
2022-07-26T21:56:11.787Z,0.60
2022-07-26T21:58:40.488Z,0.50
2022-07-26T22:01:11.389Z,0.60
2022-07-26T22:03:42.900Z,0.57
2022-07-26T22:06:12.059Z,0.77
2022-07-26T22:08:41.337Z,0.63
2022-07-26T22:11:09.973Z,0.40
2022-07-26T22:13:38.854Z,0.65
2022-07-26T22:16:08.234Z,0.68
2022-07-26T22:18:36.818Z,0.90
2022-07-26T22:21:07.174Z,0.68
2022-07-26T22:23:35.918Z,0.75
2022-07-26T22:26:05.652Z,0.52
2022-07-26T22:28:35.173Z,0.65
2022-07-26T22:31:03.955Z,1.02
2022-07-26T22:33:32.529Z,0.73
2022-07-26T22:36:01.219Z,0.70
2022-07-26T22:38:31.579Z,0.60
2022-07-26T22:41:00.311Z,0.90
2022-07-26T22:43:28.852Z,0.70
2022-07-26T22:45:57.676Z,0.52
2022-07-26T22:48:26.408Z,0.90
2022-07-26T22:50:54.924Z,0.90
2022-07-26T22:53:23.873Z,0.80
2022-07-26T22:55:54.068Z,0.55
2022-07-26T22:58:22.813Z,0.77
2022-07-26T23:00:51.971Z,1.00
2022-07-26T23:03:21.773Z,0.77
2022-07-26T23:05:52.243Z,0.77
2022-07-26T23:08:46.951Z,0.80
2022-07-26T23:11:11.709Z,0.77
2022-07-26T23:13:40.496Z,0.57
2022-07-26T23:16:09.208Z,0.90
2022-07-26T23:18:38.091Z,0.60
2022-07-26T23:21:06.970Z,0.60
2022-07-26T23:23:35.437Z,0.90
2022-07-26T23:26:04.093Z,0.77
2022-07-26T23:28:36.797Z,0.60
2022-07-26T23:31:11.030Z,0.70
2022-07-26T23:33:53.005Z,0.77
2022-07-26T23:36:27.414Z,0.70
2022-07-26T23:38:57.074Z,1.00
2022-07-26T23:41:26.945Z,0.80
2022-07-26T23:43:57.242Z,1.00
2022-07-26T23:46:26.819Z,0.93
2022-07-26T23:48:56.211Z,0.90
2022-07-26T23:51:24.941Z,0.68
2022-07-26T23:53:54.945Z,0.80
2022-07-26T23:56:24.119Z,0.90
2022-07-26T23:58:52.726Z,0.68
